Fruita, Colorado
Current Conditions -  °F | °C
As of 9:53 AM on Tuesday 21 Oct 2014 (Local Time) from KGJT Reporting Station
Scattered Clouds Scattered Clouds  
Wind Chill: 58°   Ceiling: Unl
Heat Index: 58°   Visibility: 10mi
Dew Point: 40°   Wind: 10mph
Humidity: 51%   Direction: 110°ESE
Pressure: 30.06"   Gusts: NA
Location:  39.16°N, 108.73°W
Report Text: KGJT 211553Z 11009KT 10SM SCT080 SCT110 14/04 A3006 RMK AO2 SLP139 T01440044
Loading
Personal Weather Stations






























Interactive Weather Map
Tropical Storm Tracking
New forecast layout! Learn more

10-Day Weather Forecast

Advertisements
Track Severe Weather on mobile